Time;durP1;ratioP1;P1;durP2;ratioP2;P2;SDS_P1;SDS_P2;PMS_P1;PMS_P2;Temp;Humidity;BMP_temperature;BMP_pressure;BME280_temperature;BME280_humidity;BME280_pressure;Samples;Min_cycle;Max_cycle;Signal;HPM_P1;HPM_P2
2021/08/19 00:00:58;;;;;;;9.98;5.55;;;;;;;10.24;88.71;96150.97;2609595;54;20149;-60
2021/08/19 00:03:26;;;;;;;8.35;5.70;;;;;;;10.26;89.56;96157.59;2607474;54;20093;-60
2021/08/19 00:05:54;;;;;;;12.27;7.72;;;;;;;10.31;88.77;96164.75;2608897;54;20042;-59
2021/08/19 00:08:21;;;;;;;9.40;6.45;;;;;;;10.32;88.89;96168.97;2611239;54;20066;-59
2021/08/19 00:10:49;;;;;;;10.77;6.47;;;;;;;10.31;89.03;96159.47;2610477;54;20077;-59
2021/08/19 00:13:17;;;;;;;10.18;6.35;;;;;;;10.36;88.92;96167.47;2608950;54;20044;-60
2021/08/19 00:15:45;;;;;;;6.47;5.22;;;;;;;10.39;88.82;96172.28;2608037;54;20048;-59
2021/08/19 00:18:13;;;;;;;9.23;5.43;;;;;;;10.46;87.79;96164.16;2609212;54;20038;-59
2021/08/19 00:20:41;;;;;;;9.77;6.25;;;;;;;10.56;86.95;96166.09;2607915;54;20042;-59
2021/08/19 00:23:08;;;;;;;7.72;5.57;;;;;;;10.61;85.72;96161.66;2609600;39;20588;-58
2021/08/19 00:25:36;;;;;;;7.88;5.20;;;;;;;10.67;84.56;96157.22;2609597;54;20046;-60
2021/08/19 00:28:04;;;;;;;6.03;4.70;;;;;;;10.70;84.34;96159.38;2608536;54;20046;-59
2021/08/19 00:30:33;;;;;;;6.75;4.75;;;;;;;10.71;83.68;96163.59;2609038;39;20513;-59
2021/08/19 00:33:00;;;;;;;6.90;5.05;;;;;;;10.66;84.60;96160.91;2608155;54;20578;-59
2021/08/19 00:35:28;;;;;;;7.38;5.53;;;;;;;10.64;85.20;96160.38;2608968;54;20065;-60
2021/08/19 00:37:56;;;;;;;9.63;6.93;;;;;;;10.67;84.96;96159.88;2610627;54;20134;-61
2021/08/19 00:40:24;;;;;;;7.82;5.88;;;;;;;10.70;84.10;96156.72;2611150;54;20073;-59
2021/08/19 00:42:54;;;;;;;9.85;5.18;;;;;;;10.76;83.89;96153.09;2608319;54;20035;-60
2021/08/19 00:45:22;;;;;;;6.88;4.93;;;;;;;10.77;82.88;96157.31;2608220;39;20602;-60
2021/08/19 00:47:50;;;;;;;7.38;5.70;;;;;;;10.83;83.53;96160.00;2608915;54;20069;-60
2021/08/19 00:50:18;;;;;;;7.47;5.38;;;;;;;10.85;83.40;96155.28;2610337;54;20077;-59
2021/08/19 00:52:46;;;;;;;8.77;5.38;;;;;;;10.84;83.67;96151.03;2609718;54;20042;-59
2021/08/19 00:55:15;;;;;;;6.90;4.97;;;;;;;10.83;82.94;96157.38;2609489;54;20038;-59
2021/08/19 00:57:44;;;;;;;4.72;4.25;;;;;;;10.84;83.28;96151.03;2607900;46;20058;-59
2021/08/19 01:00:13;;;;;;;7.05;4.25;;;;;;;10.85;82.45;96147.38;2609458;54;20084;-59
2021/08/19 01:02:46;;;;;;;5.30;4.55;;;;;;;10.94;81.72;96160.91;2608301;54;20581;-61
2021/08/19 01:05:17;;;;;;;6.20;4.18;;;;;;;10.92;81.70;96163.78;2610266;39;20548;-58
2021/08/19 01:07:46;;;;;;;9.25;5.65;;;;;;;10.96;81.56;96150.88;2610176;54;20069;-59
2021/08/19 01:10:13;;;;;;;8.30;5.00;;;;;;;11.01;81.60;96157.00;2609208;54;20048;-59
2021/08/19 01:12:44;;;;;;;6.85;4.63;;;;;;;11.03;81.29;96154.09;2610212;47;20035;-59
2021/08/19 01:15:14;;;;;;;4.70;3.58;;;;;;;11.03;81.47;96148.81;2609883;54;20065;-59
2021/08/19 01:17:41;;;;;;;10.18;4.38;;;;;;;11.02;81.45;96161.22;2607684;54;20081;-59
2021/08/19 01:20:09;;;;;;;5.75;4.25;;;;;;;10.97;81.36;96161.19;2608864;54;20042;-58
2021/08/19 01:22:37;;;;;;;6.88;4.85;;;;;;;10.91;81.86;96156.91;2610471;54;20098;-59
2021/08/19 01:25:05;;;;;;;7.22;4.50;;;;;;;10.90;82.31;96153.47;2609429;54;20149;-58
2021/08/19 01:27:33;;;;;;;7.47;5.57;;;;;;;10.94;82.74;96153.75;2610163;46;20058;-59
2021/08/19 01:30:01;;;;;;;10.00;7.25;;;;;;;10.95;83.18;96155.34;2607411;39;20375;-60
2021/08/19 01:32:32;;;;;;;10.13;6.88;;;;;;;10.91;83.48;96152.44;2610107;39;20526;-59
2021/08/19 01:34:59;;;;;;;9.65;7.13;;;;;;;10.93;83.58;96152.16;2609216;54;20042;-59
2021/08/19 01:37:28;;;;;;;8.77;6.63;;;;;;;10.90;83.74;96156.13;2609374;46;20046;-59
2021/08/19 01:39:55;;;;;;;10.40;6.97;;;;;;;10.88;84.13;96154.78;2608421;47;20046;-58
2021/08/19 01:42:23;;;;;;;10.90;7.40;;;;;;;10.88;83.41;96157.41;2610782;47;20038;-60
2021/08/19 01:44:51;;;;;;;10.27;7.57;;;;;;;10.88;84.04;96158.22;2608208;54;20042;-60
2021/08/19 01:47:21;;;;;;;14.10;7.70;;;;;;;10.90;83.93;96150.03;2609799;54;20045;-58
2021/08/19 01:49:49;;;;;;;11.70;7.82;;;;;;;10.94;84.00;96151.13;2609668;54;20047;-59
2021/08/19 01:52:17;;;;;;;10.25;7.88;;;;;;;10.92;83.83;96155.84;2609881;54;20034;-58
2021/08/19 01:54:45;;;;;;;9.73;7.90;;;;;;;10.94;84.20;96151.13;2610742;54;20138;-58
2021/08/19 01:57:12;;;;;;;12.13;8.88;;;;;;;10.90;83.54;96148.19;2607714;39;20695;-58
2021/08/19 01:59:40;;;;;;;14.25;8.68;;;;;;;10.90;84.04;96145.56;2608718;54;20073;-58
2021/08/19 02:02:08;;;;;;;11.27;8.60;;;;;;;10.91;84.00;96138.44;2607802;54;20153;-59
2021/08/19 02:04:35;;;;;;;11.65;9.52;;;;;;;10.89;83.74;96146.59;2608112;54;20126;-59
2021/08/19 02:07:04;;;;;;;12.98;9.32;;;;;;;10.85;84.06;96144.72;2610599;54;20656;-60
2021/08/19 02:09:31;;;;;;;12.95;8.68;;;;;;;10.81;85.02;96141.78;2608446;54;20411;-61
2021/08/19 02:11:59;;;;;;;12.48;8.30;;;;;;;10.76;85.18;96147.84;2608571;54;20057;-59
2021/08/19 02:14:27;;;;;;;12.35;9.52;;;;;;;10.68;85.98;96139.56;2611034;54;20570;-58
2021/08/19 02:16:54;;;;;;;11.45;9.00;;;;;;;10.65;85.79;96138.22;2607057;54;20046;-59
2021/08/19 02:19:22;;;;;;;8.00;6.47;;;;;;;10.63;85.96;96140.31;2608599;39;20512;-59
2021/08/19 02:21:50;;;;;;;8.95;7.10;;;;;;;10.62;86.00;96136.09;2608835;54;20200;-58
2021/08/19 02:24:18;;;;;;;11.52;7.80;;;;;;;10.56;86.41;96139.72;2609967;39;20458;-63
2021/08/19 02:26:45;;;;;;;8.65;7.38;;;;;;;10.46;87.07;96145.72;2609002;54;20046;-59
2021/08/19 02:29:13;;;;;;;9.07;5.95;;;;;;;10.42;87.39;96137.47;2608892;54;20061;-59
2021/08/19 02:31:42;;;;;;;14.90;7.82;;;;;;;10.42;88.61;96142.75;2607978;46;20072;-59
2021/08/19 02:34:10;;;;;;;8.82;6.38;;;;;;;10.42;88.53;96139.31;2610859;54;20925;-59
2021/08/19 02:36:37;;;;;;;11.05;7.15;;;;;;;10.44;88.31;96130.13;2610253;54;20038;-59
2021/08/19 02:39:08;;;;;;;7.72;6.95;;;;;;;10.48;88.52;96142.81;2606896;54;20053;-58
2021/08/19 02:41:36;;;;;;;8.77;6.55;;;;;;;10.42;88.69;96137.47;2610030;54;20073;-59
2021/08/19 02:44:04;;;;;;;8.75;6.65;;;;;;;10.38;88.64;96141.66;2609668;54;20046;-59
2021/08/19 02:46:32;;;;;;;11.18;8.07;;;;;;;10.39;88.28;96140.63;2610004;54;20034;-58
2021/08/19 02:49:00;;;;;;;12.48;7.30;;;;;;;10.35;89.37;96133.41;2610267;54;20043;-59
2021/08/19 02:51:28;;;;;;;10.60;7.22;;;;;;;10.31;89.75;96128.66;2610202;54;20034;-60
2021/08/19 02:53:55;;;;;;;13.32;7.78;;;;;;;10.30;89.77;96121.78;2609629;54;20178;-60
2021/08/19 02:56:23;;;;;;;11.57;7.47;;;;;;;10.25;89.80;96131.47;2609110;54;20039;-60
2021/08/19 02:58:51;;;;;;;8.52;7.40;;;;;;;10.23;89.91;96141.47;2606985;54;20073;-58
2021/08/19 03:01:19;;;;;;;11.57;7.13;;;;;;;10.16;89.99;96139.81;2609180;54;20034;-59
2021/08/19 03:03:47;;;;;;;9.35;6.13;;;;;;;10.02;90.46;96124.63;2609656;54;20065;-58
2021/08/19 03:06:15;;;;;;;10.82;6.35;;;;;;;9.98;91.12;96130.38;2609307;54;20038;-58
2021/08/19 03:08:43;;;;;;;8.13;6.40;;;;;;;9.95;90.87;96133.53;2607189;54;20034;-59
2021/08/19 03:11:11;;;;;;;11.80;7.38;;;;;;;9.91;91.35;96135.06;2609860;54;20046;-59
2021/08/19 03:13:39;;;;;;;11.38;7.72;;;;;;;9.93;91.96;96137.44;2611528;39;20757;-59
2021/08/19 03:16:06;;;;;;;13.70;8.48;;;;;;;9.89;91.51;96136.34;2607233;54;20039;-60
2021/08/19 03:18:34;;;;;;;9.40;7.90;;;;;;;9.86;91.88;96142.91;2610073;54;20050;-59
2021/08/19 03:21:03;;;;;;;11.55;8.23;;;;;;;9.79;91.51;96145.72;2608501;54;20066;-58
2021/08/19 03:23:32;;;;;;;15.13;8.07;;;;;;;9.71;91.53;96145.34;2610454;54;20049;-59
2021/08/19 03:26:00;;;;;;;11.93;7.30;;;;;;;9.62;91.61;96139.72;2611639;54;20042;-59
2021/08/19 03:28:28;;;;;;;10.95;6.72;;;;;;;9.58;92.36;96149.94;2608972;54;20137;-60
2021/08/19 03:30:57;;;;;;;10.90;7.95;;;;;;;9.50;92.38;96145.88;2608912;54;20865;-59
2021/08/19 03:33:24;;;;;;;19.67;7.20;;;;;;;9.43;92.88;96152.34;2609740;54;20042;-58
2021/08/19 03:35:53;;;;;;;9.90;6.13;;;;;;;9.36;92.61;96150.69;2609547;54;20134;-59
2021/08/19 03:38:39;;;;;;;11.15;7.28;;;;;;;9.25;93.09;96150.78;2610564;54;20050;-60
2021/08/19 03:41:07;;;;;;;9.30;5.95;;;;;;;9.18;94.10;96143.84;2610189;54;20105;-60
2021/08/19 03:43:37;;;;;;;9.90;6.65;;;;;;;9.15;94.38;96154.06;2610127;46;20069;-61
2021/08/19 03:46:05;;;;;;;10.75;6.20;;;;;;;9.12;94.59;96136.09;2609029;54;20035;-58
2021/08/19 03:48:32;;;;;;;9.23;6.30;;;;;;;9.13;94.48;96149.03;2608889;54;20150;-59
2021/08/19 03:51:00;;;;;;;8.27;6.90;;;;;;;9.10;95.16;96157.41;2611279;46;20088;-58
2021/08/19 03:53:28;;;;;;;8.32;6.32;;;;;;;9.10;95.39;96154.78;2611145;54;20065;-58
2021/08/19 03:55:56;;;;;;;7.20;6.30;;;;;;;9.12;95.33;96147.44;2608505;54;20039;-61
2021/08/19 03:58:24;;;;;;;9.48;5.85;;;;;;;9.17;95.44;96144.88;2607030;54;20073;-61
2021/08/19 04:00:51;;;;;;;9.10;5.95;;;;;;;9.17;96.09;96147.50;2608051;54;20047;-62
2021/08/19 04:03:19;;;;;;;9.07;6.38;;;;;;;9.22;95.29;96150.22;2606872;54;20049;-64
2021/08/19 04:05:47;;;;;;;11.68;6.97;;;;;;;9.23;95.49;96149.19;2607502;39;20618;-61
2021/08/19 04:08:15;;;;;;;8.43;6.50;;;;;;;9.23;95.84;96158.94;2605981;39;20450;-60
2021/08/19 04:10:43;;;;;;;10.05;7.20;;;;;;;9.27;96.17;96164.50;2608854;54;20046;-61
2021/08/19 04:13:18;;;;;;;7.95;6.00;;;;;;;9.35;96.47;96159.59;2607966;47;20673;-60
2021/08/19 04:15:49;;;;;;;8.27;5.68;;;;;;;9.46;95.65;96157.94;2609144;54;20042;-61
2021/08/19 04:18:17;;;;;;;9.05;6.13;;;;;;;9.49;95.35;96154.81;2608523;54;20061;-60
2021/08/19 04:20:45;;;;;;;6.97;5.63;;;;;;;9.51;95.97;96147.47;2608473;54;20628;-61
2021/08/19 04:23:13;;;;;;;12.50;6.72;;;;;;;9.56;95.15;96148.56;2610654;54;20046;-60
2021/08/19 04:25:41;;;;;;;12.30;6.20;;;;;;;9.61;94.63;96146.00;2608970;54;20041;-61
2021/08/19 04:28:08;;;;;;;9.40;6.43;;;;;;;9.64;94.63;96145.53;2609598;54;20054;-60
2021/08/19 04:30:36;;;;;;;8.77;6.63;;;;;;;9.73;94.69;96154.59;2607111;54;20054;-61
2021/08/19 04:33:04;;;;;;;10.10;6.20;;;;;;;9.76;94.55;96148.84;2609214;54;20038;-62
2021/08/19 04:35:33;;;;;;;9.98;6.97;;;;;;;9.82;94.34;96142.59;2608185;54;20039;-62
2021/08/19 04:38:01;;;;;;;11.15;6.72;;;;;;;9.88;93.88;96150.56;2607605;39;20533;-60
2021/08/19 04:40:28;;;;;;;8.57;6.28;;;;;;;9.97;93.45;96149.88;2609050;39;20427;-60
2021/08/19 04:42:56;;;;;;;11.70;7.95;;;;;;;10.18;92.66;96151.94;2607435;54;20042;-60
2021/08/19 04:45:24;;;;;;;13.05;7.93;;;;;;;10.45;91.26;96152.03;2608133;54;20047;-60
2021/08/19 04:47:52;;;;;;;13.25;8.25;;;;;;;10.69;90.11;96151.72;2608094;54;20045;-61
2021/08/19 04:50:20;;;;;;;12.32;7.53;;;;;;;11.05;88.54;96158.06;2606843;54;20046;-61
2021/08/19 04:52:48;;;;;;;12.55;7.22;;;;;;;11.39;85.64;96163.06;2608502;54;20554;-62
2021/08/19 04:55:16;;;;;;;11.27;7.47;;;;;;;11.39;85.00;96165.69;2608102;39;20730;-61
2021/08/19 04:57:44;;;;;;;17.08;8.40;;;;;;;11.61;83.94;96167.44;2607772;54;20043;-61
2021/08/19 05:00:12;;;;;;;13.23;7.88;;;;;;;11.67;83.45;96153.19;2609819;54;20065;-62
2021/08/19 05:02:40;;;;;;;15.60;6.63;;;;;;;12.10;82.29;96158.44;2603764;54;20038;-61
2021/08/19 05:05:08;;;;;;;13.80;7.60;;;;;;;13.23;76.79;96163.06;2605861;54;20042;-62
2021/08/19 05:07:36;;;;;;;9.55;7.03;;;;;;;13.91;72.46;96152.38;2610085;54;20065;-62
2021/08/19 05:10:04;;;;;;;16.77;8.10;;;;;;;14.55;71.47;96155.25;2610729;54;20034;-62
2021/08/19 05:12:32;;;;;;;11.27;6.88;;;;;;;14.68;68.81;96159.97;2608493;54;20045;-62
2021/08/19 05:15:00;;;;;;;18.65;6.95;;;;;;;14.52;69.31;96155.78;2609965;54;20042;-61
2021/08/19 05:17:27;;;;;;;10.48;6.95;;;;;;;14.15;70.49;96152.56;2609788;54;20053;-61
2021/08/19 05:19:55;;;;;;;13.70;8.57;;;;;;;13.91;70.89;96152.38;2609812;54;20050;-62
2021/08/19 05:22:23;;;;;;;17.55;7.50;;;;;;;13.82;71.70;96149.47;2606634;54;20885;-64
2021/08/19 05:24:51;;;;;;;10.77;7.78;;;;;;;14.39;69.57;96154.56;2609362;54;20046;-63
2021/08/19 05:27:19;;;;;;;8.85;6.80;;;;;;;14.39;69.39;96158.00;2608952;54;20050;-62
2021/08/19 05:29:47;;;;;;;8.68;6.25;;;;;;;14.19;68.94;96158.88;2607741;54;20042;-62
2021/08/19 05:32:14;;;;;;;16.38;6.93;;;;;;;14.17;68.78;96165.53;2607550;39;20173;-62
2021/08/19 05:34:42;;;;;;;15.55;7.72;;;;;;;14.22;69.79;96166.31;2610216;39;20240;-62
2021/08/19 05:37:10;;;;;;;11.50;6.60;;;;;;;14.05;70.41;96163.19;2609268;54;20581;-62
2021/08/19 05:39:38;;;;;;;9.65;7.45;;;;;;;13.90;70.33;96161.38;2610477;54;20034;-62
2021/08/19 05:42:06;;;;;;;10.98;7.55;;;;;;;13.83;70.88;96161.66;2607350;54;20129;-62
2021/08/19 05:44:34;;;;;;;10.77;6.95;;;;;;;13.92;70.67;96160.03;2608094;39;20445;-62
2021/08/19 05:47:04;;;;;;;12.45;7.47;;;;;;;14.01;70.51;96157.63;2610051;54;20046;-63
2021/08/19 05:49:40;;;;;;;14.27;10.00;;;;;;;14.29;70.53;96160.69;2607312;54;20049;-65
2021/08/19 05:52:08;;;;;;;14.35;9.40;;;;;;;14.42;69.51;96152.13;2609278;54;20042;-63
2021/08/19 05:54:36;;;;;;;13.73;9.23;;;;;;;14.52;68.84;96145.97;2608263;54;20086;-62
2021/08/19 05:57:04;;;;;;;16.13;9.70;;;;;;;14.63;69.89;96151.22;2607676;54;20047;-63
2021/08/19 05:59:32;;;;;;;18.38;9.55;;;;;;;14.79;69.17;96143.97;2606346;54;20065;-63
2021/08/19 06:01:59;;;;;;;15.13;10.45;;;;;;;14.89;68.58;96144.66;2606615;54;20073;-61
2021/08/19 06:04:27;;;;;;;14.15;9.50;;;;;;;15.03;68.12;96149.34;2606408;54;20046;-62
2021/08/19 06:06:55;;;;;;;14.15;9.18;;;;;;;15.11;67.74;96142.66;2606439;54;20045;-61
2021/08/19 06:09:23;;;;;;;12.00;9.32;;;;;;;15.18;68.48;96145.78;2608303;54;20038;-62
2021/08/19 06:11:50;;;;;;;13.82;8.93;;;;;;;15.18;67.68;96143.91;2607317;54;20038;-61
2021/08/19 06:14:18;;;;;;;11.98;8.90;;;;;;;15.05;67.10;96137.41;2611491;54;20042;-60
2021/08/19 06:16:46;;;;;;;10.98;8.98;;;;;;;15.16;66.97;96135.44;2610586;54;20720;-64
2021/08/19 06:19:14;;;;;;;8.75;7.00;;;;;;;15.14;66.23;96136.78;2609336;54;20141;-62
2021/08/19 06:21:42;;;;;;;12.95;7.97;;;;;;;15.19;66.14;96137.53;2610654;54;20038;-62
2021/08/19 06:24:10;;;;;;;16.25;8.68;;;;;;;15.22;66.43;96136.16;2609125;54;20046;-62
2021/08/19 06:26:38;;;;;;;16.75;8.60;;;;;;;15.17;66.03;96134.34;2610867;54;20038;-62
2021/08/19 06:29:06;;;;;;;13.70;8.48;;;;;;;15.19;66.45;96142.06;2609938;54;20065;-61
2021/08/19 06:31:34;;;;;;;13.70;9.10;;;;;;;15.19;66.39;96134.09;2606723;47;20038;-62
2021/08/19 06:34:02;;;;;;;12.38;9.02;;;;;;;15.16;67.17;96134.66;2608746;54;20038;-62
2021/08/19 06:36:30;;;;;;;13.90;8.63;;;;;;;15.14;67.69;96134.13;2605470;54;20068;-62
2021/08/19 06:38:58;;;;;;;14.50;8.45;;;;;;;15.10;67.89;96133.91;2608330;39;20441;-62
2021/08/19 06:41:27;;;;;;;22.65;7.97;;;;;;;15.10;68.41;96125.94;2609806;54;20050;-62
2021/08/19 06:43:54;;;;;;;10.30;7.53;;;;;;;15.25;67.54;96126.88;2608964;54;20049;-62
2021/08/19 06:46:23;;;;;;;11.52;6.90;;;;;;;15.34;67.24;96130.50;2608346;54;20049;-62
2021/08/19 06:48:51;;;;;;;8.60;7.15;;;;;;;15.42;66.93;96129.88;2607418;54;20042;-61
2021/08/19 06:51:18;;;;;;;11.63;7.88;;;;;;;15.44;66.24;96130.38;2605642;54;20061;-62
2021/08/19 06:53:46;;;;;;;9.20;6.07;;;;;;;15.37;66.24;96120.09;2610214;54;20042;-62
2021/08/19 06:56:14;;;;;;;9.57;6.65;;;;;;;15.34;66.65;96125.97;2609196;54;20117;-62
2021/08/19 06:58:42;;;;;;;7.57;5.80;;;;;;;15.39;66.87;96127.75;2609000;54;20039;-62
2021/08/19 07:01:10;;;;;;;12.25;7.30;;;;;;;15.41;65.92;96127.50;2608189;54;20092;-62
2021/08/19 07:03:38;;;;;;;10.15;5.90;;;;;;;15.36;66.40;96121.16;2609178;54;20038;-62
2021/08/19 07:06:10;;;;;;;8.82;5.97;;;;;;;15.38;66.30;96123.56;2610076;54;20085;-62
2021/08/19 07:08:38;;;;;;;9.75;6.18;;;;;;;15.33;66.38;96116.41;2609255;47;20570;-62
2021/08/19 07:11:06;;;;;;;10.32;6.90;;;;;;;15.27;66.63;96111.41;2609430;54;20042;-62
2021/08/19 07:13:35;;;;;;;8.25;6.03;;;;;;;15.34;67.11;96111.88;2608218;54;20158;-63
2021/08/19 07:16:03;;;;;;;9.88;5.82;;;;;;;15.44;67.65;96105.69;2609837;54;20042;-62
2021/08/19 07:18:31;;;;;;;9.15;6.00;;;;;;;15.62;66.96;96115.56;2609367;54;20039;-64
2021/08/19 07:20:59;;;;;;;11.50;6.03;;;;;;;15.76;66.70;96115.69;2610235;54;20038;-61
2021/08/19 07:23:26;;;;;;;10.07;6.72;;;;;;;15.82;66.72;96119.88;2608741;54;22035;-61
2021/08/19 07:25:55;;;;;;;11.23;5.75;;;;;;;15.92;66.41;96110.22;2610025;54;20565;-62
2021/08/19 07:28:23;;;;;;;13.85;6.88;;;;;;;16.05;66.55;96108.75;2608948;54;20118;-63
2021/08/19 07:30:51;;;;;;;8.27;6.13;;;;;;;16.13;65.60;96108.09;2611099;54;20061;-61
2021/08/19 07:33:19;;;;;;;13.55;5.82;;;;;;;16.20;65.43;96113.06;2607701;54;20076;-61
2021/08/19 07:35:49;;;;;;;9.27;5.95;;;;;;;16.17;64.80;96110.97;2610436;54;20042;-62
2021/08/19 07:38:18;;;;;;;12.45;6.40;;;;;;;16.25;65.17;96105.78;2608496;54;20625;-61
2021/08/19 07:40:48;;;;;;;8.50;6.05;;;;;;;16.40;65.05;96110.09;2609718;54;20046;-62
2021/08/19 07:43:16;;;;;;;10.45;5.57;;;;;;;16.55;63.74;96100.31;2609099;54;20038;-62
2021/08/19 07:45:44;;;;;;;12.25;5.65;;;;;;;16.80;63.36;96101.00;2610813;54;20046;-62
2021/08/19 07:48:13;;;;;;;8.80;5.30;;;;;;;16.94;63.47;96096.53;2608905;54;20038;-61
2021/08/19 07:50:42;;;;;;;7.93;5.75;;;;;;;17.18;63.32;96095.63;2605964;54;20035;-62
2021/08/19 07:53:11;;;;;;;7.45;5.43;;;;;;;17.35;61.77;96095.81;2604989;54;20044;-61
2021/08/19 07:55:39;;;;;;;10.55;6.25;;;;;;;17.46;61.71;96091.09;2605435;54;20069;-61
2021/08/19 07:58:07;;;;;;;8.38;5.05;;;;;;;17.71;61.49;96097.03;2604783;54;20072;-61
2021/08/19 08:00:35;;;;;;;8.48;4.68;;;;;;;17.85;60.44;96096.22;2604982;54;20046;-61
2021/08/19 08:03:04;;;;;;;9.05;5.55;;;;;;;17.95;60.24;96093.34;2606713;54;20038;-59
2021/08/19 08:05:35;;;;;;;6.18;5.00;;;;;;;18.05;59.88;96095.06;2607894;54;20106;-61
2021/08/19 08:08:10;;;;;;;6.57;4.80;;;;;;;18.16;60.55;96093.75;2610387;39;20481;-61
2021/08/19 08:10:40;;;;;;;7.60;4.10;;;;;;;18.32;58.17;96088.09;2609450;54;20042;-61
2021/08/19 08:13:10;;;;;;;4.55;4.15;;;;;;;18.37;59.16;96090.63;2609711;54;20073;-61
2021/08/19 08:15:39;;;;;;;8.25;4.72;;;;;;;18.51;58.81;96088.69;2610583;54;20042;-61
2021/08/19 08:18:13;;;;;;;8.65;5.13;;;;;;;18.68;59.23;96093.38;2611391;54;20034;-58
2021/08/19 08:20:41;;;;;;;6.10;4.75;;;;;;;18.71;58.24;96075.94;2608883;54;20043;-59
2021/08/19 08:23:09;;;;;;;5.63;3.53;;;;;;;18.88;57.95;96086.75;2608302;54;20042;-59
2021/08/19 08:25:37;;;;;;;5.82;3.47;;;;;;;19.02;57.93;96083.25;2610476;54;20039;-62
2021/08/19 08:28:13;;;;;;;12.70;7.43;;;;;;;19.23;58.34;96094.22;2609366;54;20037;-63
2021/08/19 08:30:46;;;;;;;10.73;5.22;;;;;;;19.51;57.54;96094.00;2607525;54;20057;-61
2021/08/19 08:33:14;;;;;;;4.60;3.85;;;;;;;19.69;56.95;96084.19;2607758;54;20053;-61
2021/08/19 08:35:42;;;;;;;7.47;4.43;;;;;;;19.90;56.47;96089.78;2607832;54;21403;-61
2021/08/19 08:38:14;;;;;;;4.53;3.35;;;;;;;20.06;56.19;96082.06;2605907;39;20331;-60
2021/08/19 08:40:45;;;;;;;6.45;3.65;;;;;;;20.43;55.45;96095.97;2607805;46;20042;-60
2021/08/19 08:43:16;;;;;;;4.90;3.58;;;;;;;20.72;55.69;96085.75;2601205;54;20062;-61
2021/08/19 08:45:48;;;;;;;4.70;3.65;;;;;;;20.89;55.05;96084.97;2607467;54;20049;-60
2021/08/19 08:48:23;;;;;;;6.88;3.95;;;;;;;21.16;52.59;96083.78;2611472;54;20150;-61
2021/08/19 08:50:53;;;;;;;;;;;;;;;21.38;52.25;96081.19;2606812;46;20157;-62
2021/08/19 08:53:21;;;;;;;8.60;3.72;;;;;;;21.59;50.84;96076.72;2605695;54;19954;-62
2021/08/19 08:55:49;;;;;;;6.47;4.68;;;;;;;21.66;51.39;96086.94;2606486;54;20710;-61
2021/08/19 08:58:18;;;;;;;7.40;3.13;;;;;;;21.73;51.67;96089.13;2610212;54;20044;-61
2021/08/19 09:00:47;;;;;;;6.00;3.05;;;;;;;21.87;51.72;96078.94;2609086;54;20038;-60
2021/08/19 09:03:17;;;;;;;4.63;2.92;;;;;;;21.96;49.94;96082.34;2608614;54;20060;-62
2021/08/19 09:05:47;;;;;;;3.92;3.08;;;;;;;21.99;50.99;96069.41;2608880;54;20034;-61
2021/08/19 09:08:20;;;;;;;5.28;2.50;;;;;;;22.02;50.27;96072.22;2609955;54;20034;-61
2021/08/19 09:10:50;;;;;;;2.95;2.58;;;;;;;22.04;49.20;96075.38;2610722;54;20998;-61
2021/08/19 09:13:21;;;;;;;5.78;3.72;;;;;;;22.06;50.03;96075.03;2609534;39;20416;-60
2021/08/19 09:15:50;;;;;;;5.78;5.18;;;;;;;22.33;50.17;96078.31;2611400;54;20038;-62
2021/08/19 09:18:32;;;;;;;3.47;2.28;;;;;;;22.50;49.31;96078.22;2610096;54;20160;-61
2021/08/19 09:21:01;;;;;;;2.83;2.53;;;;;;;22.47;49.45;96078.06;2610134;54;20046;-60
2021/08/19 09:23:29;;;;;;;3.55;2.47;;;;;;;22.43;46.15;96083.31;2609938;54;20042;-61
2021/08/19 09:25:59;;;;;;;3.85;1.73;;;;;;;22.37;47.48;96080.03;2609132;54;20130;-61
2021/08/19 09:28:29;;;;;;;1.48;1.30;;;;;;;22.46;46.07;96079.22;2609270;54;20046;-61
2021/08/19 09:31:09;;;;;;;3.75;2.40;;;;;;;22.72;44.11;96077.06;2609819;54;20069;-62
2021/08/19 09:33:43;;;;;;;3.45;1.90;;;;;;;22.41;44.42;96077.50;2610756;54;20119;-61
2021/08/19 09:36:10;;;;;;;1.90;1.70;;;;;;;22.50;44.22;96080.13;2609313;54;20047;-61
2021/08/19 09:38:43;;;;;;;4.10;2.50;;;;;;;22.38;45.96;96081.59;2610062;54;20407;-61
2021/08/19 09:41:13;;;;;;;2.25;1.42;;;;;;;22.35;43.65;96084.94;2610362;54;20069;-61
2021/08/19 09:43:45;;;;;;;2.60;1.98;;;;;;;22.05;44.80;96079.63;2609666;54;20656;-61
2021/08/19 09:46:15;;;;;;;3.25;1.80;;;;;;;21.92;44.59;96081.44;2611264;54;20049;-61
2021/08/19 09:48:43;;;;;;;2.10;1.48;;;;;;;21.80;43.62;96087.50;2609550;54;20078;-62
2021/08/19 09:51:20;;;;;;;1.88;1.67;;;;;;;21.88;44.17;96083.22;2610119;54;20065;-61
2021/08/19 09:53:57;;;;;;;4.05;1.67;;;;;;;21.84;44.78;96081.50;2609168;46;20049;-61
2021/08/19 09:56:33;;;;;;;1.95;1.70;;;;;;;21.91;45.09;96089.81;2608681;54;20039;-61
2021/08/19 09:59:21;;;;;;;2.05;1.65;;;;;;;21.94;45.39;96087.25;2609996;54;20042;-62
2021/08/19 10:01:54;;;;;;;2.33;1.42;;;;;;;22.04;43.76;96088.78;2611052;54;20141;-61
2021/08/19 10:04:25;;;;;;;11.57;10.23;;;;;;;22.10;44.18;96087.47;2606420;54;20069;-62
2021/08/19 10:06:54;;;;;;;10.35;5.22;;;;;;;22.19;43.50;96086.66;2606377;54;20046;-62
2021/08/19 10:09:23;;;;;;;2.92;1.95;;;;;;;21.81;44.15;96089.09;2609073;54;20605;-63
2021/08/19 10:11:53;;;;;;;2.50;2.25;;;;;;;21.69;44.43;96078.25;2609050;54;20473;-62
2021/08/19 10:14:23;;;;;;;2.42;1.92;;;;;;;21.68;45.26;96086.59;2608430;54;20038;-62
2021/08/19 10:16:53;;;;;;;2.65;1.20;;;;;;;21.83;41.69;96077.25;2610046;39;20453;-62
2021/08/19 10:19:41;;;;;;;3.15;2.70;;;;;;;22.00;42.26;96081.72;2609308;54;20042;-62
2021/08/19 10:22:16;;;;;;;5.63;2.07;;;;;;;22.03;42.27;96081.84;2609161;54;20511;-62
2021/08/19 10:24:52;;;;;;;2.15;1.67;;;;;;;22.07;42.58;96085.47;2609277;54;20069;-62
2021/08/19 10:27:24;;;;;;;2.22;1.30;;;;;;;22.04;42.20;96086.09;2606563;54;20034;-61
2021/08/19 10:30:06;;;;;;;1.95;1.80;;;;;;;21.97;42.32;96085.81;2608657;54;20085;-62
2021/08/19 10:32:39;;;;;;;1.50;1.40;;;;;;;21.88;41.90;96079.72;2609148;39;20409;-61
2021/08/19 10:35:14;;;;;;;4.68;1.40;;;;;;;21.84;41.23;96090.31;2610374;39;20422;-61
2021/08/19 10:37:48;;;;;;;1.75;1.58;;;;;;;21.87;42.49;96075.47;2609417;54;20585;-61
2021/08/19 10:40:37;;;;;;;1.70;1.60;;;;;;;21.95;43.05;96080.00;2609534;39;20385;-62
2021/08/19 10:43:33;;;;;;;1.30;1.13;;;;;;;22.06;41.53;96086.56;2610020;31;20495;-61
2021/08/19 10:46:11;;;;;;;2.28;1.83;;;;;;;22.03;42.22;96065.72;2609466;54;20050;-61
2021/08/19 10:48:46;;;;;;;2.92;1.88;;;;;;;22.23;41.92;96076.81;2609487;54;20425;-62
2021/08/19 10:51:15;;;;;;;7.93;1.90;;;;;;;22.34;41.59;96080.66;2609835;54;20038;-61
2021/08/19 10:53:44;;;;;;;2.40;1.73;;;;;;;22.26;40.56;96085.03;2607775;54;20043;-61
2021/08/19 10:56:12;;;;;;;2.08;1.60;;;;;;;22.09;41.22;96069.00;2608626;54;20042;-61
2021/08/19 10:58:43;;;;;;;1.60;1.40;;;;;;;21.94;40.26;96068.47;2606355;54;20042;-61
2021/08/19 11:01:13;;;;;;;2.17;1.67;;;;;;;21.95;41.48;96061.97;2605352;54;20050;-61
2021/08/19 11:03:47;;;;;;;0.90;0.90;;;;;;;21.95;40.88;96053.16;2607764;54;20592;-61
2021/08/19 11:06:18;;;;;;;2.70;1.48;;;;;;;22.03;41.71;96063.03;2604226;54;20065;-62
2021/08/19 11:08:52;;;;;;;2.15;1.70;;;;;;;22.12;38.34;96055.69;2599796;39;20572;-62
2021/08/19 11:11:26;;;;;;;1.50;1.20;;;;;;;22.18;40.51;96052.84;2605074;54;20070;-61
2021/08/19 11:14:14;;;;;;;1.60;1.30;;;;;;;22.27;39.25;96059.72;2605630;54;20069;-61
2021/08/19 11:16:43;;;;;;;1.15;1.05;;;;;;;22.37;38.87;96058.53;2608454;54;20078;-62
2021/08/19 11:19:15;;;;;;;4.57;1.92;;;;;;;22.48;39.78;96064.31;2606916;54;20042;-62
2021/08/19 11:21:48;;;;;;;2.33;1.58;;;;;;;22.52;39.18;96057.16;2608641;54;20039;-62
2021/08/19 11:24:16;;;;;;;35.97;32.33;;;;;;;22.70;41.49;96049.75;2605718;47;20680;-62
2021/08/19 11:27:08;;;;;;;7.03;6.40;;;;;;;22.88;39.43;96049.56;2605872;54;20562;-62
2021/08/19 11:29:38;;;;;;;35.58;32.30;;;;;;;22.97;40.10;96050.25;2605823;54;20648;-61
2021/08/19 11:32:16;;;;;;;4.25;3.85;;;;;;;23.09;39.05;96056.78;2606737;54;20069;-62
2021/08/19 11:34:49;;;;;;;3.53;3.22;;;;;;;23.21;38.70;96054.13;2607643;54;20142;-62
2021/08/19 11:37:31;;;;;;;1.73;1.60;;;;;;;23.16;38.09;96054.34;2609372;54;20050;-62
2021/08/19 11:40:00;;;;;;;1.45;1.25;;;;;;;23.22;38.28;96052.25;2608363;54;20689;-61
2021/08/19 11:42:33;;;;;;;1.90;1.63;;;;;;;23.62;38.70;96046.22;2607758;54;20073;-63